createdAt,value
2023-07-25T00:01:58.012Z,25.98
2023-07-25T00:04:26.001Z,25.96
2023-07-25T00:06:53.856Z,25.96
2023-07-25T00:09:21.626Z,25.95
2023-07-25T00:11:49.493Z,25.94
2023-07-25T00:14:17.382Z,25.94
2023-07-25T00:16:45.386Z,25.92
2023-07-25T00:19:13.526Z,25.92
2023-07-25T00:21:41.314Z,25.93
2023-07-25T00:24:09.048Z,25.94
2023-07-25T00:26:37.117Z,25.95
2023-07-25T00:29:05.555Z,25.96
2023-07-25T00:31:34.665Z,25.98
2023-07-25T00:34:05.241Z,26.00
2023-07-25T00:36:33.515Z,26.02
2023-07-25T00:39:01.428Z,26.03
2023-07-25T00:41:29.713Z,26.06
2023-07-25T00:43:57.848Z,26.08
2023-07-25T00:46:26.341Z,26.11
2023-07-25T00:48:54.927Z,26.12
2023-07-25T00:51:22.798Z,26.13
2023-07-25T00:53:51.480Z,26.12
2023-07-25T00:56:19.827Z,26.10
2023-07-25T00:58:48.207Z,26.05
2023-07-25T01:01:16.022Z,26.01
2023-07-25T01:03:44.198Z,25.96
2023-07-25T01:06:16.158Z,25.91
2023-07-25T01:08:48.877Z,25.85
2023-07-25T01:11:17.376Z,25.83
2023-07-25T01:13:45.528Z,25.81
2023-07-25T01:16:16.348Z,25.79
2023-07-25T01:18:45.384Z,25.76
2023-07-25T01:21:13.676Z,25.73
2023-07-25T01:23:42.501Z,25.71
2023-07-25T01:26:10.520Z,25.69
2023-07-25T01:28:38.787Z,25.68
2023-07-25T01:31:06.644Z,25.68
2023-07-25T01:33:34.374Z,25.67
2023-07-25T01:36:02.778Z,25.65
2023-07-25T01:38:30.738Z,25.60
2023-07-25T01:40:58.632Z,25.58
2023-07-25T01:43:26.618Z,25.56
2023-07-25T01:45:54.437Z,25.54
2023-07-25T01:48:22.736Z,25.49
2023-07-25T01:50:50.699Z,25.45
2023-07-25T01:53:18.709Z,25.45
2023-07-25T01:55:47.157Z,25.44
2023-07-25T01:58:15.103Z,25.43
2023-07-25T02:00:42.774Z,25.43
2023-07-25T02:03:12.147Z,25.42
2023-07-25T02:05:40.249Z,25.43
2023-07-25T02:08:08.044Z,25.43
2023-07-25T02:10:35.851Z,25.45
2023-07-25T02:13:03.865Z,25.46
2023-07-25T02:15:31.690Z,25.47
2023-07-25T02:18:00.408Z,25.48
2023-07-25T02:20:30.937Z,25.50
2023-07-25T02:22:59.358Z,25.50
2023-07-25T02:25:27.586Z,25.51
2023-07-25T02:27:55.639Z,25.51
2023-07-25T02:30:23.365Z,25.53
2023-07-25T02:32:51.241Z,25.55
2023-07-25T02:35:19.041Z,25.49
2023-07-25T02:37:46.905Z,25.29
2023-07-25T02:40:14.631Z,25.01
2023-07-25T02:42:42.868Z,24.73
2023-07-25T02:45:11.485Z,24.44
2023-07-25T02:47:39.927Z,24.14
2023-07-25T02:50:08.233Z,23.86
2023-07-25T02:52:36.385Z,23.65
2023-07-25T02:55:04.692Z,23.50
2023-07-25T02:57:32.399Z,23.37
2023-07-25T03:00:00.781Z,23.28
2023-07-25T03:02:28.826Z,23.19
2023-07-25T03:04:57.443Z,23.12
2023-07-25T03:07:25.161Z,23.03
2023-07-25T03:09:53.070Z,23.00
2023-07-25T03:12:21.303Z,23.01
2023-07-25T03:14:49.278Z,23.05
2023-07-25T03:17:17.518Z,23.08
2023-07-25T03:19:45.654Z,23.09
2023-07-25T03:22:13.509Z,23.09
2023-07-25T03:24:41.936Z,23.11
2023-07-25T03:27:09.786Z,23.12
2023-07-25T03:29:37.822Z,23.06
2023-07-25T03:32:06.233Z,22.99
2023-07-25T03:34:34.208Z,22.95
2023-07-25T03:37:02.084Z,22.94
2023-07-25T03:39:30.138Z,22.94
2023-07-25T03:41:57.911Z,22.94
2023-07-25T03:44:25.853Z,22.93
2023-07-25T03:46:53.602Z,22.93
2023-07-25T03:49:21.680Z,22.94
2023-07-25T03:51:49.440Z,22.95
2023-07-25T03:54:19.220Z,22.96
2023-07-25T03:56:46.895Z,22.98
2023-07-25T03:59:14.678Z,23.00
2023-07-25T04:01:42.535Z,23.02
2023-07-25T04:04:10.538Z,23.02
2023-07-25T04:06:39.235Z,23.02
2023-07-25T04:09:07.447Z,23.02
2023-07-25T04:11:35.582Z,23.01
2023-07-25T04:14:03.838Z,22.99
2023-07-25T04:16:31.833Z,22.99
2023-07-25T04:18:59.954Z,23.01
2023-07-25T04:21:28.115Z,23.04
2023-07-25T04:23:56.177Z,23.06
2023-07-25T04:26:24.181Z,23.08
2023-07-25T04:28:52.271Z,23.07
2023-07-25T04:31:21.529Z,23.07
2023-07-25T04:33:49.781Z,23.09
2023-07-25T04:36:17.958Z,23.13
2023-07-25T04:38:45.778Z,23.16
2023-07-25T04:41:13.793Z,23.17
2023-07-25T04:43:41.839Z,23.18
2023-07-25T04:46:09.644Z,23.21
2023-07-25T04:48:37.607Z,23.22
2023-07-25T04:51:05.704Z,23.20
2023-07-25T04:53:34.926Z,23.22
2023-07-25T04:56:02.773Z,23.27
2023-07-25T04:58:30.811Z,23.34
2023-07-25T05:00:58.932Z,23.43
2023-07-25T05:03:27.431Z,23.56
2023-07-25T05:05:56.260Z,23.76
2023-07-25T05:08:24.073Z,23.95
2023-07-25T05:10:52.586Z,24.13
2023-07-25T05:13:20.704Z,24.37
2023-07-25T05:15:48.568Z,24.64
2023-07-25T05:18:16.304Z,24.94
2023-07-25T05:20:44.467Z,25.20
2023-07-25T05:23:12.981Z,25.43
2023-07-25T05:25:41.361Z,25.58
2023-07-25T05:28:09.114Z,25.65
2023-07-25T05:30:37.465Z,25.71
2023-07-25T05:33:05.190Z,25.87
2023-07-25T05:35:33.101Z,25.96
2023-07-25T05:38:02.058Z,26.08
2023-07-25T05:40:29.907Z,26.27
2023-07-25T05:42:57.843Z,26.42
2023-07-25T05:45:25.696Z,26.52
2023-07-25T05:47:53.708Z,26.67
2023-07-25T05:50:21.442Z,26.86
2023-07-25T05:52:49.518Z,27.04
2023-07-25T05:55:17.521Z,27.22
2023-07-25T05:57:45.464Z,27.35
2023-07-25T06:00:14.312Z,27.49
2023-07-25T06:02:42.328Z,27.69
2023-07-25T06:05:10.411Z,27.90
2023-07-25T06:07:38.595Z,28.07
2023-07-25T06:10:07.642Z,28.19
2023-07-25T06:12:35.451Z,28.30
2023-07-25T06:15:03.786Z,28.34
2023-07-25T06:17:31.825Z,28.45
2023-07-25T06:20:00.229Z,28.62
2023-07-25T06:22:28.025Z,28.75
2023-07-25T06:24:55.930Z,28.86
2023-07-25T06:27:25.670Z,28.98
2023-07-25T06:29:55.484Z,29.07
2023-07-25T06:32:23.959Z,29.14
2023-07-25T06:34:52.019Z,29.20
2023-07-25T06:37:20.220Z,29.26
2023-07-25T06:39:47.914Z,29.36
2023-07-25T06:42:16.315Z,29.46
2023-07-25T06:44:47.496Z,29.57
2023-07-25T06:47:15.295Z,29.62
2023-07-25T06:49:42.964Z,29.61
2023-07-25T06:52:10.998Z,29.62
2023-07-25T06:54:39.434Z,29.61
2023-07-25T06:57:07.465Z,29.64
2023-07-25T06:59:35.122Z,29.75
2023-07-25T07:02:03.228Z,29.89
2023-07-25T07:04:31.144Z,30.01
2023-07-25T07:06:59.222Z,30.17
2023-07-25T07:09:27.306Z,30.29
2023-07-25T07:11:55.741Z,30.38
2023-07-25T07:14:23.453Z,30.43
2023-07-25T07:16:51.364Z,30.54
2023-07-25T07:19:19.554Z,30.71
2023-07-25T07:21:47.251Z,30.89
2023-07-25T07:24:15.320Z,30.88
2023-07-25T07:26:43.276Z,30.85
2023-07-25T07:29:11.478Z,30.94
2023-07-25T07:31:39.408Z,31.05
2023-07-25T07:34:18.359Z,31.11
2023-07-25T07:36:46.199Z,31.20
2023-07-25T07:39:14.189Z,31.30
2023-07-25T07:41:42.323Z,31.43
2023-07-25T07:44:10.256Z,31.42
2023-07-25T07:46:38.065Z,31.39
2023-07-25T07:49:05.941Z,31.56
2023-07-25T07:51:33.976Z,31.66
2023-07-25T07:54:01.804Z,31.71
2023-07-25T07:56:29.879Z,31.71
2023-07-25T07:58:57.592Z,31.88
2023-07-25T08:01:26.077Z,32.01
2023-07-25T08:03:53.964Z,32.05
2023-07-25T08:06:22.063Z,32.18
2023-07-25T08:08:49.942Z,32.41
2023-07-25T08:11:17.888Z,32.54
2023-07-25T08:13:45.793Z,32.61
2023-07-25T08:16:13.712Z,32.66
2023-07-25T08:18:41.536Z,32.78
2023-07-25T08:21:09.295Z,32.89
2023-07-25T08:23:36.977Z,33.00
2023-07-25T08:26:05.018Z,33.15
2023-07-25T08:28:32.876Z,33.26
2023-07-25T08:31:01.715Z,33.36
2023-07-25T08:33:30.262Z,33.46
2023-07-25T08:35:58.094Z,33.38
2023-07-25T08:38:26.006Z,33.44
2023-07-25T08:41:14.343Z,33.62
2023-07-25T08:43:43.854Z,33.68
2023-07-25T08:46:12.787Z,33.75
2023-07-25T08:48:41.704Z,33.84
2023-07-25T08:51:20.906Z,33.96
2023-07-25T08:53:57.103Z,33.93
2023-07-25T08:56:26.245Z,33.99
2023-07-25T08:58:55.241Z,34.01
2023-07-25T09:01:23.167Z,34.00
2023-07-25T09:03:52.730Z,34.11
2023-07-25T09:06:21.229Z,34.19
2023-07-25T09:08:49.173Z,34.28
2023-07-25T09:11:20.618Z,34.40
2023-07-25T09:13:51.724Z,34.54
2023-07-25T09:16:19.622Z,34.73
2023-07-25T09:18:47.570Z,34.84
2023-07-25T09:21:16.202Z,34.88
2023-07-25T09:23:54.241Z,34.91
2023-07-25T09:26:22.706Z,35.01
2023-07-25T09:28:52.096Z,35.13
2023-07-25T09:31:21.403Z,35.05
2023-07-25T09:33:50.371Z,35.09
2023-07-25T09:36:19.748Z,35.02
2023-07-25T09:38:48.957Z,35.00
2023-07-25T09:41:17.867Z,35.05
2023-07-25T09:43:45.861Z,35.15
2023-07-25T09:46:13.871Z,35.22
2023-07-25T09:48:45.900Z,35.37
2023-07-25T09:51:14.370Z,35.45
2023-07-25T09:53:43.451Z,35.47
2023-07-25T09:56:11.586Z,35.45
2023-07-25T09:58:50.892Z,35.33
2023-07-25T10:01:28.233Z,35.20
2023-07-25T10:03:56.581Z,35.16
2023-07-25T10:06:25.285Z,35.12
2023-07-25T10:08:54.335Z,35.02
2023-07-25T10:11:23.747Z,34.91
2023-07-25T10:13:52.200Z,34.82
2023-07-25T10:16:21.023Z,34.70
2023-07-25T10:18:55.966Z,34.61
2023-07-25T10:21:30.732Z,34.58
2023-07-25T10:24:01.437Z,34.54
2023-07-25T10:26:29.623Z,34.58
2023-07-25T10:29:00.864Z,34.67
2023-07-25T10:31:34.921Z,34.71
2023-07-25T10:34:03.843Z,34.80
2023-07-25T10:36:31.601Z,34.89
2023-07-25T10:39:07.361Z,34.97
2023-07-25T10:41:35.403Z,35.01
2023-07-25T10:44:04.010Z,34.97
2023-07-25T10:46:33.304Z,34.90
2023-07-25T10:49:02.565Z,34.91
2023-07-25T10:51:52.581Z,34.89
2023-07-25T10:54:22.402Z,34.87
2023-07-25T10:57:11.569Z,34.85
2023-07-25T10:59:59.983Z,34.65
2023-07-25T11:02:35.398Z,34.52
2023-07-25T11:05:15.888Z,34.37
2023-07-25T11:07:47.122Z,34.25
2023-07-25T11:10:24.958Z,34.03
2023-07-25T11:12:55.288Z,33.76
2023-07-25T11:15:36.497Z,33.53
2023-07-25T11:18:11.682Z,33.25
2023-07-25T11:20:39.795Z,32.94
2023-07-25T11:23:08.225Z,32.67
2023-07-25T11:25:36.260Z,32.49
2023-07-25T11:28:04.394Z,32.42
2023-07-25T11:30:32.515Z,32.51
2023-07-25T11:33:00.561Z,32.79
2023-07-25T11:35:30.664Z,33.06
2023-07-25T11:38:03.901Z,33.12
2023-07-25T11:40:32.819Z,33.08
2023-07-25T11:43:01.142Z,33.24
2023-07-25T11:45:29.492Z,33.45
2023-07-25T11:47:58.986Z,33.55
2023-07-25T11:50:30.490Z,33.69
2023-07-25T11:53:02.281Z,33.86
2023-07-25T11:55:30.783Z,34.10
2023-07-25T11:58:02.786Z,34.28
2023-07-25T12:00:43.410Z,34.40
2023-07-25T12:03:18.862Z,34.50
2023-07-25T12:05:53.564Z,34.36
2023-07-25T12:08:35.797Z,34.14
2023-07-25T12:11:04.266Z,34.02
2023-07-25T12:13:32.290Z,33.89
2023-07-25T12:16:02.090Z,33.67
2023-07-25T12:18:31.307Z,33.43
2023-07-25T12:21:01.832Z,33.21
2023-07-25T12:23:30.470Z,32.95
2023-07-25T12:26:01.051Z,32.67
2023-07-25T12:28:42.237Z,32.40
2023-07-25T12:31:10.131Z,32.22
2023-07-25T12:33:39.111Z,32.09
2023-07-25T12:36:07.295Z,31.91
2023-07-25T12:38:35.379Z,31.76
2023-07-25T12:41:04.048Z,31.68
2023-07-25T12:43:31.899Z,31.61
2023-07-25T12:46:00.036Z,31.58
2023-07-25T12:48:27.860Z,31.60
2023-07-25T12:50:55.682Z,31.63
2023-07-25T12:53:24.093Z,31.65
2023-07-25T12:55:53.915Z,31.70
2023-07-25T12:58:21.935Z,31.83
2023-07-25T13:00:50.291Z,31.90
2023-07-25T13:03:22.348Z,31.93
2023-07-25T13:05:50.440Z,31.91
2023-07-25T13:08:18.885Z,31.85
2023-07-25T13:10:48.507Z,31.77
2023-07-25T13:13:16.237Z,31.71
2023-07-25T13:15:44.794Z,31.61
2023-07-25T13:18:13.300Z,31.51
2023-07-25T13:20:41.140Z,31.46
2023-07-25T13:23:14.094Z,31.39
2023-07-25T13:25:44.503Z,31.29
2023-07-25T13:28:13.077Z,31.20
2023-07-25T13:30:41.530Z,31.14
2023-07-25T13:33:09.519Z,31.09
2023-07-25T13:35:37.854Z,31.00
2023-07-25T13:38:07.708Z,30.93
2023-07-25T13:40:35.413Z,30.86
2023-07-25T13:43:03.839Z,30.76
2023-07-25T13:45:45.729Z,30.62
2023-07-25T13:48:19.644Z,30.50
2023-07-25T13:50:53.676Z,30.40
2023-07-25T13:53:23.333Z,30.29
2023-07-25T13:55:51.908Z,30.11
2023-07-25T14:00:50.371Z,25.17
2023-07-25T14:03:18.204Z,24.04
2023-07-25T14:05:45.998Z,23.49
2023-07-25T14:08:14.016Z,23.21
2023-07-25T14:10:42.292Z,23.07
2023-07-25T14:13:10.344Z,23.06
2023-07-25T14:15:38.337Z,23.11
2023-07-25T14:18:06.092Z,23.19
2023-07-25T14:20:34.326Z,23.30
2023-07-25T14:23:02.065Z,23.42
2023-07-25T14:25:30.114Z,23.48
2023-07-25T14:27:57.922Z,23.53
2023-07-25T14:30:26.287Z,23.61
2023-07-25T14:32:54.548Z,23.72
2023-07-25T14:35:22.723Z,23.81
2023-07-25T14:37:56.786Z,23.89
2023-07-25T14:40:26.120Z,24.03
2023-07-25T14:42:54.223Z,24.18
2023-07-25T14:45:27.336Z,24.35
2023-07-25T14:48:01.601Z,24.46
2023-07-25T14:50:29.893Z,24.56
2023-07-25T14:52:57.944Z,24.62
2023-07-25T14:55:26.097Z,24.64
2023-07-25T14:57:54.361Z,24.66
2023-07-25T15:00:22.276Z,24.68
2023-07-25T15:02:50.704Z,24.71
2023-07-25T15:05:18.817Z,24.74
2023-07-25T15:07:47.242Z,24.77
2023-07-25T15:10:15.423Z,24.85
2023-07-25T15:12:43.973Z,24.94
2023-07-25T15:15:12.277Z,25.01
2023-07-25T15:17:40.194Z,24.99
2023-07-25T15:20:11.519Z,24.91
2023-07-25T15:22:41.240Z,24.84
2023-07-25T15:25:09.404Z,24.82
2023-07-25T15:27:37.235Z,24.84
2023-07-25T15:30:05.561Z,24.84
2023-07-25T15:32:33.634Z,24.86
2023-07-25T15:35:01.433Z,24.87
2023-07-25T15:37:29.286Z,24.88
2023-07-25T15:39:57.778Z,24.91
2023-07-25T15:42:25.576Z,24.89
2023-07-25T15:44:53.622Z,24.85
2023-07-25T15:47:22.132Z,24.82
2023-07-25T15:49:49.823Z,24.80
2023-07-25T15:52:17.514Z,24.78
2023-07-25T15:54:45.275Z,24.74
2023-07-25T15:57:13.461Z,24.69
2023-07-25T15:59:41.783Z,24.63
2023-07-25T16:02:09.906Z,24.54
2023-07-25T16:04:37.731Z,24.46
2023-07-25T16:07:06.047Z,24.34
2023-07-25T16:09:34.065Z,24.17
2023-07-25T16:12:02.200Z,24.01
2023-07-25T16:14:30.023Z,23.83
2023-07-25T16:16:58.110Z,23.66
2023-07-25T16:19:27.179Z,23.47
2023-07-25T16:21:55.229Z,23.26
2023-07-25T16:24:22.888Z,23.06
2023-07-25T16:26:50.635Z,22.96
2023-07-25T16:29:18.925Z,22.91
2023-07-25T16:31:48.322Z,22.90
2023-07-25T16:34:19.188Z,22.92
2023-07-25T16:36:47.101Z,22.92
2023-07-25T16:39:15.020Z,22.86
2023-07-25T16:41:42.945Z,22.76
2023-07-25T16:44:10.930Z,22.74
2023-07-25T16:46:38.944Z,22.74
2023-07-25T16:49:07.064Z,22.72
2023-07-25T16:51:34.988Z,22.68
2023-07-25T16:54:03.328Z,22.59
2023-07-25T16:56:31.790Z,22.50
2023-07-25T16:59:00.406Z,22.36
2023-07-25T17:01:28.343Z,22.25
2023-07-25T17:03:56.435Z,22.12
2023-07-25T17:06:24.534Z,21.98
2023-07-25T17:08:52.565Z,21.87
2023-07-25T17:11:20.749Z,21.79
2023-07-25T17:13:48.547Z,21.72
2023-07-25T17:16:16.986Z,21.67
2023-07-25T17:18:44.947Z,21.68
2023-07-25T17:21:14.859Z,21.70
2023-07-25T17:23:46.391Z,21.73
2023-07-25T17:26:14.540Z,21.81
2023-07-25T17:28:42.380Z,21.84
2023-07-25T17:31:10.788Z,21.89
2023-07-25T17:33:41.807Z,21.94
2023-07-25T17:36:09.608Z,21.99
2023-07-25T17:38:37.420Z,22.01
2023-07-25T17:41:06.045Z,22.03
2023-07-25T17:43:34.141Z,22.06
2023-07-25T17:46:01.832Z,22.09
2023-07-25T17:48:29.501Z,22.11
2023-07-25T17:50:57.431Z,22.14
2023-07-25T17:53:25.467Z,22.16
2023-07-25T17:55:55.700Z,22.19
2023-07-25T17:58:23.594Z,22.21
2023-07-25T18:00:52.046Z,22.24
2023-07-25T18:03:20.074Z,22.29
2023-07-25T18:05:48.678Z,22.34
2023-07-25T18:08:19.962Z,22.35
2023-07-25T18:14:58.931Z,22.31
2023-07-25T18:17:35.648Z,22.28
2023-07-25T18:20:03.942Z,22.27
2023-07-25T18:22:32.790Z,22.28
2023-07-25T18:25:09.067Z,22.32
2023-07-25T18:27:51.334Z,22.35
2023-07-25T18:30:23.186Z,22.37
2023-07-25T18:32:51.298Z,22.36
2023-07-25T18:35:19.801Z,22.35
2023-07-25T18:38:08.635Z,22.40
2023-07-25T18:40:44.505Z,22.47
2023-07-25T18:43:20.746Z,22.49
2023-07-25T18:45:49.564Z,22.50
2023-07-25T18:48:17.274Z,22.50
2023-07-25T18:50:45.557Z,22.51
2023-07-25T18:53:13.408Z,22.53
2023-07-25T18:55:41.792Z,22.56
2023-07-25T18:58:10.020Z,22.56
2023-07-25T19:00:38.261Z,22.56
2023-07-25T19:03:06.413Z,22.54
2023-07-25T19:05:34.414Z,22.48
2023-07-25T19:08:02.466Z,22.46
2023-07-25T19:10:30.442Z,22.44
2023-07-25T19:12:58.628Z,22.38
2023-07-25T19:15:27.168Z,22.38
2023-07-25T19:17:54.978Z,22.40
2023-07-25T19:20:23.221Z,22.42
2023-07-25T19:22:51.375Z,22.45
2023-07-25T19:25:19.180Z,22.45
2023-07-25T19:27:49.513Z,22.43
2023-07-25T19:30:17.514Z,22.42
2023-07-25T19:32:45.380Z,22.42
2023-07-25T19:35:13.559Z,22.35
2023-07-25T19:37:41.476Z,22.29
2023-07-25T19:40:09.458Z,22.28
2023-07-25T19:42:38.566Z,22.27
2023-07-25T19:45:06.690Z,22.25
2023-07-25T19:47:34.908Z,22.25
2023-07-25T19:50:03.072Z,22.25
2023-07-25T19:52:30.842Z,22.26
2023-07-25T19:54:59.132Z,22.25
2023-07-25T19:57:27.263Z,22.22
2023-07-25T19:59:55.055Z,22.21
2023-07-25T20:02:23.386Z,22.18
2023-07-25T20:04:51.462Z,22.18
2023-07-25T20:07:19.239Z,22.17
2023-07-25T20:09:47.026Z,22.16
2023-07-25T20:12:15.173Z,22.14
2023-07-25T20:14:43.224Z,22.15
2023-07-25T20:17:11.213Z,22.15
2023-07-25T20:19:38.813Z,22.16
2023-07-25T20:22:06.641Z,22.17
2023-07-25T20:24:34.592Z,22.13
2023-07-25T20:27:02.380Z,22.11
2023-07-25T20:29:30.480Z,22.11
2023-07-25T20:31:59.813Z,22.11
2023-07-25T20:34:28.358Z,22.08
2023-07-25T20:36:57.224Z,22.05
2023-07-25T20:39:24.999Z,22.08
2023-07-25T20:41:52.941Z,22.10
2023-07-25T20:44:21.337Z,22.12
2023-07-25T20:46:49.125Z,22.14
2023-07-25T20:49:17.051Z,22.15
2023-07-25T20:51:45.124Z,22.12
2023-07-25T20:54:13.462Z,22.07
2023-07-25T20:56:41.212Z,22.04
2023-07-25T20:59:09.972Z,22.05
2023-07-25T21:01:38.153Z,22.06
2023-07-25T21:04:06.174Z,22.07
2023-07-25T21:06:34.406Z,22.06
2023-07-25T21:09:02.378Z,22.04
2023-07-25T21:11:30.358Z,22.05
2023-07-25T21:13:58.430Z,22.11
2023-07-25T21:16:26.311Z,22.14
2023-07-25T21:18:54.280Z,22.16
2023-07-25T21:21:22.187Z,22.16
2023-07-25T21:23:49.989Z,22.13
2023-07-25T21:26:18.040Z,22.10
2023-07-25T21:28:46.116Z,22.08
2023-07-25T21:31:13.975Z,22.01
2023-07-25T21:33:42.106Z,21.97
2023-07-25T21:36:11.409Z,21.96
2023-07-25T21:38:40.108Z,21.96
2023-07-25T21:41:09.001Z,21.97
2023-07-25T21:43:37.067Z,21.97
2023-07-25T21:46:05.121Z,21.96
2023-07-25T21:48:32.965Z,21.98
2023-07-25T21:51:01.173Z,21.98
2023-07-25T21:53:29.852Z,21.99
2023-07-25T21:55:58.223Z,22.00
2023-07-25T21:58:27.143Z,22.00
2023-07-25T22:00:59.036Z,21.99
2023-07-25T22:03:29.290Z,21.99
2023-07-25T22:05:58.231Z,21.99
2023-07-25T22:08:26.263Z,21.97
2023-07-25T22:10:54.547Z,21.95
2023-07-25T22:13:22.867Z,21.95
2023-07-25T22:15:51.479Z,21.96
2023-07-25T22:18:19.914Z,21.98
2023-07-25T22:20:52.503Z,21.98
2023-07-25T22:23:21.922Z,21.94
2023-07-25T22:25:50.015Z,21.92
2023-07-25T22:28:17.825Z,21.89
2023-07-25T22:30:45.821Z,21.88
2023-07-25T22:33:13.664Z,21.86
2023-07-25T22:35:41.758Z,21.84
2023-07-25T22:38:10.369Z,21.83
2023-07-25T22:40:38.934Z,21.83
2023-07-25T22:43:07.102Z,21.83
2023-07-25T22:45:35.321Z,21.84
2023-07-25T22:48:03.479Z,21.84
2023-07-25T22:50:31.670Z,21.84
2023-07-25T22:53:00.033Z,21.87
2023-07-25T22:55:28.239Z,21.88
2023-07-25T22:57:56.312Z,21.89
2023-07-25T23:00:24.542Z,21.88
2023-07-25T23:02:53.151Z,21.89
2023-07-25T23:05:21.096Z,21.90
2023-07-25T23:07:49.164Z,21.93
2023-07-25T23:10:17.549Z,21.94
2023-07-25T23:12:45.500Z,21.95
2023-07-25T23:15:14.719Z,21.96
2023-07-25T23:17:42.640Z,21.96
2023-07-25T23:20:10.678Z,21.94
2023-07-25T23:22:38.490Z,21.93
2023-07-25T23:25:06.512Z,21.93
2023-07-25T23:27:34.484Z,21.90
2023-07-25T23:30:02.628Z,21.90
2023-07-25T23:32:30.389Z,21.88
2023-07-25T23:34:58.243Z,21.84
2023-07-25T23:37:26.411Z,21.80
2023-07-25T23:39:54.659Z,21.74
2023-07-25T23:42:22.920Z,21.71
2023-07-25T23:44:50.738Z,21.66
2023-07-25T23:47:18.685Z,21.60
2023-07-25T23:49:46.401Z,21.55
2023-07-25T23:52:14.221Z,21.53
2023-07-25T23:54:42.332Z,21.50
2023-07-25T23:57:10.741Z,21.50
2023-07-25T23:59:38.934Z,21.50
